createdAt,value
2022-09-16T00:00:02.774Z,16.11
2022-09-16T00:01:02.891Z,16.11
2022-09-16T00:02:03.467Z,16.07
2022-09-16T00:03:03.355Z,16.06
2022-09-16T00:04:03.072Z,16.03
2022-09-16T00:05:02.902Z,15.99
2022-09-16T00:06:03.337Z,15.99
2022-09-16T00:07:03.845Z,15.99
2022-09-16T00:08:03.373Z,15.99
2022-09-16T00:09:03.201Z,15.96
2022-09-16T00:10:03.664Z,15.94
2022-09-16T00:11:03.476Z,15.94
2022-09-16T00:12:02.742Z,15.93
2022-09-16T00:13:02.436Z,15.94
2022-09-16T00:14:02.779Z,15.92
2022-09-16T00:15:02.624Z,15.93
2022-09-16T00:16:02.470Z,15.93
2022-09-16T00:17:03.515Z,15.92
2022-09-16T00:18:03.033Z,15.89
2022-09-16T00:19:03.540Z,15.89
2022-09-16T00:20:03.188Z,15.85
2022-09-16T00:21:03.086Z,15.86
2022-09-16T00:22:02.900Z,15.85
2022-09-16T00:23:02.676Z,15.85
2022-09-16T00:24:02.701Z,15.85
2022-09-16T00:25:03.169Z,15.81
2022-09-16T00:26:02.570Z,15.81
2022-09-16T00:27:03.387Z,15.79
2022-09-16T00:28:03.429Z,15.79
2022-09-16T00:29:03.168Z,15.79
2022-09-16T00:30:03.033Z,15.78
2022-09-16T00:31:03.700Z,15.78
2022-09-16T00:32:03.395Z,15.76
2022-09-16T00:33:03.673Z,15.78
2022-09-16T00:34:03.700Z,15.75
2022-09-16T00:35:03.383Z,15.76
2022-09-16T00:36:03.691Z,15.75
2022-09-16T00:37:03.023Z,15.76
2022-09-16T00:38:02.447Z,15.75
2022-09-16T00:39:02.531Z,15.75
2022-09-16T00:40:02.708Z,15.76
2022-09-16T00:41:02.514Z,15.75
2022-09-16T00:42:03.470Z,15.76
2022-09-16T00:43:03.226Z,15.75
2022-09-16T00:44:03.100Z,15.74
2022-09-16T00:45:02.933Z,15.76
2022-09-16T00:46:03.558Z,15.74
2022-09-16T00:47:03.222Z,15.76
2022-09-16T00:48:03.108Z,15.75
2022-09-16T00:49:03.291Z,15.75
2022-09-16T00:50:03.240Z,15.70
2022-09-16T00:51:03.005Z,15.70
2022-09-16T00:52:03.433Z,15.67
2022-09-16T00:53:03.837Z,15.67
2022-09-16T00:54:03.401Z,15.67
2022-09-16T00:55:03.504Z,15.66
2022-09-16T00:56:03.603Z,15.61
2022-09-16T00:57:03.140Z,15.60
2022-09-16T00:58:03.326Z,15.59
2022-09-16T00:59:03.126Z,15.57
2022-09-16T01:00:03.162Z,15.57
2022-09-16T01:01:03.147Z,15.57
2022-09-16T01:02:02.759Z,15.54
2022-09-16T01:03:02.667Z,15.54
2022-09-16T01:04:03.178Z,15.51
2022-09-16T01:05:02.642Z,15.52
2022-09-16T01:06:02.799Z,15.49
2022-09-16T01:07:03.048Z,15.49
2022-09-16T01:08:02.833Z,15.48
2022-09-16T01:09:03.170Z,15.45
2022-09-16T01:10:02.747Z,15.43
2022-09-16T01:11:02.790Z,15.43
2022-09-16T01:12:02.387Z,15.43
2022-09-16T01:13:02.496Z,15.42
2022-09-16T01:14:02.272Z,15.41
2022-09-16T01:15:02.142Z,15.39
2022-09-16T01:16:02.502Z,15.36
2022-09-16T01:17:02.768Z,15.36
2022-09-16T01:18:02.324Z,15.38
2022-09-16T01:19:02.436Z,15.35
2022-09-16T01:20:02.233Z,15.30
2022-09-16T01:21:02.666Z,15.30
2022-09-16T01:22:03.189Z,15.30
2022-09-16T01:23:03.475Z,15.28
2022-09-16T01:24:03.141Z,15.26
2022-09-16T01:25:02.932Z,15.23
2022-09-16T01:26:02.983Z,15.23
2022-09-16T01:27:02.625Z,15.23
2022-09-16T01:28:02.462Z,15.21
2022-09-16T01:29:02.863Z,15.21
2022-09-16T01:30:02.846Z,15.20
2022-09-16T01:31:02.551Z,15.21
2022-09-16T01:32:02.893Z,15.19
2022-09-16T01:33:02.897Z,15.15
2022-09-16T01:34:02.526Z,15.13
2022-09-16T01:35:02.298Z,15.15
2022-09-16T01:36:02.791Z,15.13
2022-09-16T01:37:02.772Z,15.13
2022-09-16T01:38:02.634Z,15.13
2022-09-16T01:39:02.965Z,15.15
2022-09-16T01:40:02.831Z,15.12
2022-09-16T01:41:02.767Z,15.12
2022-09-16T01:42:03.503Z,15.12
2022-09-16T01:43:03.062Z,15.12
2022-09-16T01:44:03.530Z,15.13
2022-09-16T01:45:03.063Z,15.13
2022-09-16T01:46:03.617Z,15.13
2022-09-16T01:47:02.799Z,15.12
2022-09-16T01:48:02.531Z,15.12
2022-09-16T01:49:03.001Z,15.12
2022-09-16T01:50:02.604Z,15.11
2022-09-16T01:51:02.475Z,15.13
2022-09-16T01:52:03.196Z,15.13
2022-09-16T01:53:03.104Z,15.15
2022-09-16T01:54:02.991Z,15.17
2022-09-16T01:55:03.203Z,15.19
2022-09-16T01:56:02.598Z,15.20
2022-09-16T01:57:02.919Z,15.23
2022-09-16T01:58:02.880Z,15.21
2022-09-16T01:59:03.359Z,15.23
2022-09-16T02:00:02.859Z,15.24
2022-09-16T02:01:02.698Z,15.27
2022-09-16T02:02:02.768Z,15.28
2022-09-16T02:03:02.601Z,15.30
2022-09-16T02:04:02.265Z,15.30
2022-09-16T02:05:02.743Z,15.30
2022-09-16T02:06:02.398Z,15.26
2022-09-16T02:07:02.976Z,15.30
2022-09-16T02:08:02.523Z,15.30
2022-09-16T02:09:03.029Z,15.31
2022-09-16T02:10:02.806Z,15.30
2022-09-16T02:11:02.534Z,15.30
2022-09-16T02:12:02.799Z,15.31
2022-09-16T02:13:02.657Z,15.31
2022-09-16T02:14:02.903Z,15.27
2022-09-16T02:15:03.011Z,15.28
2022-09-16T02:16:02.887Z,15.26
2022-09-16T02:17:02.491Z,15.27
2022-09-16T02:18:02.229Z,15.27
2022-09-16T02:19:01.960Z,15.26
2022-09-16T02:20:02.713Z,15.27
2022-09-16T02:21:02.565Z,15.26
2022-09-16T02:22:02.837Z,15.26
2022-09-16T02:23:02.576Z,15.26
2022-09-16T02:24:02.385Z,15.24
2022-09-16T02:25:02.320Z,15.27
2022-09-16T02:26:02.874Z,15.24
2022-09-16T02:27:03.167Z,15.23
2022-09-16T02:28:02.861Z,15.21
2022-09-16T02:29:02.615Z,15.20
2022-09-16T02:30:03.072Z,15.20
2022-09-16T02:31:03.304Z,15.20
2022-09-16T02:32:02.638Z,15.20
2022-09-16T02:33:02.404Z,15.17
2022-09-16T02:34:02.161Z,15.19
2022-09-16T02:35:02.129Z,15.15
2022-09-16T02:36:02.694Z,15.15
2022-09-16T02:37:02.974Z,15.15
2022-09-16T02:38:02.579Z,15.13
2022-09-16T02:39:02.557Z,15.15
2022-09-16T02:40:02.512Z,15.15
2022-09-16T02:41:02.525Z,15.15
2022-09-16T02:42:03.000Z,15.13
2022-09-16T02:43:02.770Z,15.13
2022-09-16T02:44:02.834Z,15.11
2022-09-16T02:45:02.673Z,15.12
2022-09-16T02:46:03.030Z,15.09
2022-09-16T02:47:02.212Z,15.09
2022-09-16T02:48:02.336Z,15.08
2022-09-16T02:49:02.133Z,15.08
2022-09-16T02:50:01.900Z,15.06
2022-09-16T02:51:01.923Z,15.08
2022-09-16T02:52:02.793Z,15.05
2022-09-16T02:53:02.589Z,15.06
2022-09-16T02:54:03.049Z,15.03
2022-09-16T02:55:02.820Z,15.01
2022-09-16T02:56:02.578Z,14.99
2022-09-16T02:57:02.770Z,15.01
2022-09-16T02:58:02.300Z,14.98
2022-09-16T02:59:02.767Z,14.99
2022-09-16T03:00:02.751Z,14.99
2022-09-16T03:01:02.361Z,14.98
2022-09-16T03:02:02.604Z,14.98
2022-09-16T03:03:02.207Z,14.98
2022-09-16T03:04:02.206Z,14.99
2022-09-16T03:05:02.636Z,14.99
2022-09-16T03:06:02.198Z,14.99
2022-09-16T03:07:01.936Z,14.99
2022-09-16T03:08:02.277Z,14.99
2022-09-16T03:09:02.070Z,15.01
2022-09-16T03:10:01.913Z,14.99
2022-09-16T03:11:02.360Z,14.99
2022-09-16T03:12:01.978Z,15.01
2022-09-16T03:13:02.275Z,14.98
2022-09-16T03:14:02.077Z,14.99
2022-09-16T03:15:01.951Z,15.02
2022-09-16T03:16:02.193Z,15.02
2022-09-16T03:17:02.518Z,15.03
2022-09-16T03:18:02.505Z,15.03
2022-09-16T03:19:02.495Z,15.05
2022-09-16T03:20:02.268Z,15.03
2022-09-16T03:21:02.020Z,15.03
2022-09-16T03:22:02.588Z,15.02
2022-09-16T03:23:02.914Z,15.05
2022-09-16T03:24:02.715Z,15.02
2022-09-16T03:25:03.065Z,15.03
2022-09-16T03:26:02.713Z,15.06
2022-09-16T03:27:02.793Z,15.09
2022-09-16T03:28:02.426Z,15.09
2022-09-16T03:29:02.811Z,15.11
2022-09-16T03:30:02.599Z,15.11
2022-09-16T03:31:02.826Z,15.12
2022-09-16T03:32:03.057Z,15.12
2022-09-16T03:33:02.624Z,15.12
2022-09-16T03:34:02.524Z,15.17
2022-09-16T03:35:02.879Z,15.20
2022-09-16T03:36:02.672Z,15.19
2022-09-16T03:37:02.309Z,15.19
2022-09-16T03:38:02.302Z,15.21
2022-09-16T03:39:02.701Z,15.26
2022-09-16T03:40:02.592Z,15.27
2022-09-16T03:41:02.119Z,15.30
2022-09-16T03:42:03.015Z,15.28
2022-09-16T03:43:02.812Z,15.27
2022-09-16T03:44:04.157Z,15.26
2022-09-16T03:45:03.164Z,15.27
2022-09-16T03:46:02.720Z,15.30
2022-09-16T03:47:02.314Z,15.30
2022-09-16T03:48:02.342Z,15.31
2022-09-16T03:49:02.462Z,15.31
2022-09-16T03:50:02.664Z,15.31
2022-09-16T03:51:02.710Z,15.31
2022-09-16T03:52:01.942Z,15.31
2022-09-16T03:53:01.897Z,15.36
2022-09-16T03:54:01.728Z,15.36
2022-09-16T03:55:02.291Z,15.41
2022-09-16T03:56:02.208Z,15.38
2022-09-16T03:57:02.613Z,15.38
2022-09-16T03:58:02.456Z,15.38
2022-09-16T03:59:02.751Z,15.39
2022-09-16T04:00:02.564Z,15.39
2022-09-16T04:01:03.066Z,15.41
2022-09-16T04:02:03.420Z,15.41
2022-09-16T04:03:03.783Z,15.43
2022-09-16T04:04:03.401Z,15.46
2022-09-16T04:05:03.209Z,15.48
2022-09-16T04:06:03.685Z,15.46
2022-09-16T04:07:03.080Z,15.46
2022-09-16T04:08:02.894Z,15.46
2022-09-16T04:09:03.049Z,15.48
2022-09-16T04:10:02.850Z,15.48
2022-09-16T04:11:02.724Z,15.48
2022-09-16T04:12:03.187Z,15.49
2022-09-16T04:13:02.961Z,15.52
2022-09-16T04:14:03.288Z,15.49
2022-09-16T04:15:03.297Z,15.52
2022-09-16T04:16:03.193Z,15.54
2022-09-16T04:17:03.565Z,15.57
2022-09-16T04:18:03.238Z,15.54
2022-09-16T04:19:03.249Z,15.56
2022-09-16T04:20:03.761Z,15.54
2022-09-16T04:21:03.567Z,15.57
2022-09-16T04:22:03.127Z,15.59
2022-09-16T04:23:03.055Z,15.60
2022-09-16T04:24:02.932Z,15.59
2022-09-16T04:25:03.133Z,15.59
2022-09-16T04:26:02.977Z,15.59
2022-09-16T04:27:03.418Z,15.57
2022-09-16T04:28:03.637Z,15.56
2022-09-16T04:29:03.511Z,15.60
2022-09-16T04:30:03.695Z,15.59
2022-09-16T04:31:03.687Z,15.57
2022-09-16T04:32:03.565Z,15.60
2022-09-16T04:33:03.330Z,15.60
2022-09-16T04:34:03.821Z,15.60
2022-09-16T04:35:03.442Z,15.61
2022-09-16T04:36:03.463Z,15.60
2022-09-16T04:37:02.852Z,15.61
2022-09-16T04:38:02.732Z,15.60
2022-09-16T04:39:02.590Z,15.60
2022-09-16T04:40:04.932Z,15.60
2022-09-16T04:41:02.903Z,15.59
2022-09-16T04:42:03.097Z,15.59
2022-09-16T04:43:03.366Z,15.60
2022-09-16T04:44:03.235Z,15.60
2022-09-16T04:45:03.513Z,15.59
2022-09-16T04:46:03.405Z,15.59
2022-09-16T04:47:03.027Z,15.61
2022-09-16T04:48:02.846Z,15.59
2022-09-16T04:49:02.906Z,15.59
2022-09-16T04:50:02.719Z,15.61
2022-09-16T04:51:02.571Z,15.61
2022-09-16T04:52:02.995Z,15.64
2022-09-16T04:53:02.852Z,15.61
2022-09-16T04:54:02.744Z,15.61
2022-09-16T04:55:02.840Z,15.59
2022-09-16T04:56:02.820Z,15.63
2022-09-16T04:57:02.898Z,15.64
2022-09-16T04:58:03.526Z,15.60
2022-09-16T04:59:03.117Z,15.61
2022-09-16T05:00:03.067Z,15.61
2022-09-16T05:01:03.391Z,15.61
2022-09-16T05:02:03.090Z,15.61
2022-09-16T05:03:03.661Z,15.63
2022-09-16T05:04:02.884Z,15.63
2022-09-16T05:05:03.437Z,15.63
2022-09-16T05:06:03.390Z,15.61
2022-09-16T05:07:02.911Z,15.63
2022-09-16T05:08:02.708Z,15.61
2022-09-16T05:09:02.514Z,15.56
2022-09-16T05:10:02.559Z,15.54
2022-09-16T05:11:02.485Z,15.52
2022-09-16T05:12:03.139Z,15.49
2022-09-16T05:13:02.720Z,15.52
2022-09-16T05:14:02.713Z,15.51
2022-09-16T05:15:02.541Z,15.49
2022-09-16T05:16:03.056Z,15.48
2022-09-16T05:17:03.685Z,15.49
2022-09-16T05:18:03.526Z,15.48
2022-09-16T05:19:03.620Z,15.48
2022-09-16T05:20:03.590Z,15.48
2022-09-16T05:21:03.109Z,15.49
2022-09-16T05:22:03.792Z,15.49
2022-09-16T05:23:03.687Z,15.49
2022-09-16T05:24:03.283Z,15.49
2022-09-16T05:25:03.530Z,15.39
2022-09-16T05:26:03.436Z,15.31
2022-09-16T05:27:02.993Z,15.28
2022-09-16T05:28:03.028Z,15.26
2022-09-16T05:29:02.724Z,15.26
2022-09-16T05:30:02.667Z,15.27
2022-09-16T05:31:02.838Z,15.28
2022-09-16T05:32:02.747Z,15.28
2022-09-16T05:33:03.104Z,15.27
2022-09-16T05:34:02.712Z,15.28
2022-09-16T05:35:02.836Z,15.30
2022-09-16T05:36:02.877Z,15.28
2022-09-16T05:37:02.816Z,15.31
2022-09-16T05:38:03.360Z,15.31
2022-09-16T05:40:03.125Z,15.26
2022-09-16T05:41:03.085Z,15.26
2022-09-16T05:42:03.375Z,15.26
2022-09-16T05:43:03.177Z,15.27
2022-09-16T05:44:03.192Z,15.27
2022-09-16T05:45:03.196Z,15.27
2022-09-16T05:46:03.162Z,15.27
2022-09-16T05:47:03.530Z,15.27
2022-09-16T05:48:03.975Z,15.21
2022-09-16T05:49:03.694Z,15.20
2022-09-16T05:50:03.475Z,15.17
2022-09-16T05:51:03.545Z,15.20
2022-09-16T05:52:02.672Z,15.17
2022-09-16T05:53:02.577Z,15.17
2022-09-16T05:54:03.042Z,15.15
2022-09-16T05:55:02.569Z,15.11
2022-09-16T05:56:02.616Z,15.09
2022-09-16T05:57:06.828Z,15.12
2022-09-16T05:58:02.813Z,15.12
2022-09-16T05:59:02.862Z,15.12
2022-09-16T06:00:03.276Z,15.12
2022-09-16T06:01:03.244Z,15.15
2022-09-16T06:02:02.702Z,15.17
2022-09-16T06:03:02.485Z,15.13
2022-09-16T06:04:03.145Z,15.13
2022-09-16T06:05:02.899Z,15.13
2022-09-16T06:06:03.000Z,15.13
2022-09-16T06:07:03.331Z,15.17
2022-09-16T06:08:03.402Z,15.15
2022-09-16T06:09:02.793Z,15.20
2022-09-16T06:10:02.939Z,15.19
2022-09-16T06:11:02.886Z,15.21
2022-09-16T06:12:02.646Z,15.24
2022-09-16T06:13:02.528Z,15.23
2022-09-16T06:14:02.498Z,15.23
2022-09-16T06:15:03.013Z,15.24
2022-09-16T06:16:03.240Z,15.26
2022-09-16T06:17:03.250Z,15.26
2022-09-16T06:18:06.487Z,15.23
2022-09-16T06:19:03.486Z,15.26
2022-09-16T06:20:03.033Z,15.28
2022-09-16T06:21:03.456Z,15.31
2022-09-16T06:22:02.443Z,15.31
2022-09-16T06:23:02.411Z,15.35
2022-09-16T06:24:02.365Z,15.38
2022-09-16T06:25:02.351Z,15.42
2022-09-16T06:26:02.542Z,15.39
2022-09-16T06:27:02.542Z,15.41
2022-09-16T06:28:02.729Z,15.42
2022-09-16T06:29:02.855Z,15.46
2022-09-16T06:30:02.869Z,15.51
2022-09-16T06:31:02.611Z,15.52
2022-09-16T06:32:02.718Z,15.59
2022-09-16T06:33:03.151Z,15.63
2022-09-16T06:34:02.865Z,15.66
2022-09-16T06:35:02.538Z,15.68
2022-09-16T06:36:02.849Z,15.74
2022-09-16T06:37:02.846Z,15.79
2022-09-16T06:38:02.765Z,15.82
2022-09-16T06:39:02.725Z,15.86
2022-09-16T06:40:02.888Z,15.88
2022-09-16T06:41:02.702Z,15.89
2022-09-16T06:42:02.555Z,15.89
2022-09-16T06:43:02.876Z,15.96
2022-09-16T06:44:02.687Z,15.96
2022-09-16T06:45:02.600Z,15.94
2022-09-16T06:46:02.317Z,15.97
2022-09-16T06:47:02.929Z,15.99
2022-09-16T06:48:02.611Z,15.94
2022-09-16T06:49:06.215Z,15.96
2022-09-16T06:50:03.174Z,15.94
2022-09-16T06:51:03.307Z,15.93
2022-09-16T06:52:03.227Z,15.92
2022-09-16T06:53:03.072Z,15.97
2022-09-16T06:54:03.515Z,15.99
2022-09-16T06:55:03.134Z,15.96
2022-09-16T06:56:03.103Z,15.93
2022-09-16T06:57:02.730Z,15.88
2022-09-16T06:58:02.831Z,15.88
2022-09-16T06:59:02.812Z,15.88
2022-09-16T07:00:02.924Z,15.88
2022-09-16T07:01:02.771Z,15.93
2022-09-16T07:02:02.539Z,15.94
2022-09-16T07:03:02.948Z,15.94
2022-09-16T07:04:02.942Z,16.01
2022-09-16T07:05:02.789Z,16.06
2022-09-16T07:06:02.789Z,16.04
2022-09-16T07:07:09.794Z,16.01
2022-09-16T07:08:02.567Z,16.00
2022-09-16T07:09:02.587Z,15.96
2022-09-16T07:10:02.789Z,15.94
2022-09-16T07:11:02.190Z,15.94
2022-09-16T07:12:02.684Z,15.94
2022-09-16T07:13:02.646Z,16.00
2022-09-16T07:14:02.521Z,16.01
2022-09-16T07:15:02.604Z,16.09
2022-09-16T07:16:12.876Z,16.12
2022-09-16T07:17:02.518Z,16.12
2022-09-16T07:18:02.025Z,16.09
2022-09-16T07:19:02.282Z,16.07
2022-09-16T07:20:02.186Z,16.01
2022-09-16T07:21:02.481Z,16.00
2022-09-16T07:22:02.684Z,16.00
2022-09-16T07:23:02.464Z,16.03
2022-09-16T07:24:02.823Z,16.07
2022-09-16T07:25:02.197Z,16.07
2022-09-16T07:26:02.287Z,16.06
2022-09-16T07:27:02.970Z,16.09
2022-09-16T07:28:03.016Z,16.12
2022-09-16T07:29:02.795Z,16.14
2022-09-16T07:30:08.197Z,16.12
2022-09-16T07:31:03.122Z,16.12
2022-09-16T07:32:03.050Z,16.12
2022-09-16T07:33:03.196Z,16.11
2022-09-16T07:34:04.648Z,16.15
2022-09-16T07:35:02.583Z,16.16
2022-09-16T07:36:02.573Z,16.22
2022-09-16T07:37:03.379Z,16.27
2022-09-16T07:38:03.009Z,16.31
2022-09-16T07:39:03.014Z,16.34
2022-09-16T07:40:03.363Z,16.31
2022-09-16T07:41:03.004Z,16.33
2022-09-16T07:42:05.876Z,16.33
2022-09-16T07:43:02.763Z,16.33
2022-09-16T07:44:02.930Z,16.33
2022-09-16T07:45:02.660Z,16.37
2022-09-16T07:46:02.578Z,16.40
2022-09-16T07:47:02.711Z,16.41
2022-09-16T07:48:02.841Z,16.41
2022-09-16T07:49:03.140Z,16.42
2022-09-16T07:50:03.083Z,16.44
2022-09-16T07:51:02.713Z,16.45
2022-09-16T07:52:03.236Z,16.44
2022-09-16T07:53:02.725Z,16.48
2022-09-16T07:54:02.720Z,16.48
2022-09-16T07:55:02.746Z,16.45
2022-09-16T07:56:02.869Z,16.48
2022-09-16T07:57:02.919Z,16.49
2022-09-16T07:58:03.008Z,16.48
2022-09-16T07:59:02.601Z,16.42
2022-09-16T08:00:02.776Z,16.40
2022-09-16T08:01:04.826Z,16.44
2022-09-16T08:02:02.317Z,16.44
2022-09-16T08:03:01.904Z,16.42
2022-09-16T08:04:02.164Z,16.40
2022-09-16T08:05:02.168Z,16.38
2022-09-16T08:06:02.072Z,16.37
2022-09-16T08:07:02.320Z,16.38
2022-09-16T08:08:02.394Z,16.35
2022-09-16T08:09:15.270Z,16.34
2022-09-16T08:10:02.548Z,16.37
2022-09-16T08:11:02.283Z,16.41
2022-09-16T08:12:02.579Z,16.42
2022-09-16T08:13:02.086Z,16.45
2022-09-16T08:14:02.031Z,16.49
2022-09-16T08:15:02.356Z,16.58
2022-09-16T08:16:02.356Z,16.59
2022-09-16T08:17:02.974Z,16.63
2022-09-16T08:18:02.311Z,16.65
2022-09-16T08:19:02.886Z,16.68
2022-09-16T08:20:02.608Z,16.68
2022-09-16T08:21:02.345Z,16.67
2022-09-16T08:22:02.730Z,16.70
2022-09-16T08:23:02.567Z,16.75
2022-09-16T08:24:02.507Z,16.75
2022-09-16T08:25:02.582Z,16.71
2022-09-16T08:26:02.486Z,16.73
2022-09-16T08:27:02.819Z,16.77
2022-09-16T08:28:02.555Z,16.83
2022-09-16T08:29:10.196Z,16.88
2022-09-16T08:30:02.531Z,16.92
2022-09-16T08:31:03.024Z,16.95
2022-09-16T08:32:02.098Z,16.95
2022-09-16T08:33:02.180Z,16.96
2022-09-16T08:34:02.071Z,16.98
2022-09-16T08:35:02.150Z,17.00
2022-09-16T08:36:02.230Z,16.98
2022-09-16T08:37:02.045Z,16.96
2022-09-16T08:38:02.021Z,16.95
2022-09-16T08:39:02.417Z,17.00
2022-09-16T08:40:02.363Z,17.07
2022-09-16T08:41:02.452Z,17.14
2022-09-16T08:42:02.621Z,17.20
2022-09-16T08:43:02.653Z,17.20
2022-09-16T08:44:02.593Z,17.20
2022-09-16T08:45:02.880Z,17.26
2022-09-16T08:46:02.644Z,17.33
2022-09-16T08:47:01.834Z,17.40
2022-09-16T08:48:01.973Z,17.44
2022-09-16T08:49:02.019Z,17.48
2022-09-16T08:50:01.899Z,17.53
2022-09-16T08:51:02.002Z,17.64
2022-09-16T08:52:02.201Z,17.67
2022-09-16T08:53:02.312Z,17.70
2022-09-16T08:54:02.356Z,17.76
2022-09-16T08:55:02.444Z,17.81
2022-09-16T08:56:02.300Z,17.85
2022-09-16T08:57:02.330Z,17.87
2022-09-16T08:58:02.375Z,17.85
2022-09-16T08:59:02.440Z,17.94
2022-09-16T09:00:02.282Z,18.02
2022-09-16T09:01:02.430Z,18.06
2022-09-16T09:02:08.861Z,18.10
2022-09-16T09:03:03.310Z,18.17
2022-09-16T09:04:03.609Z,18.25
2022-09-16T09:05:03.291Z,18.29
2022-09-16T09:06:03.431Z,18.29
2022-09-16T09:07:02.519Z,18.36
2022-09-16T09:08:02.671Z,18.39
2022-09-16T09:09:02.510Z,18.40
2022-09-16T09:10:05.903Z,18.40
2022-09-16T09:11:02.405Z,18.44
2022-09-16T09:12:03.021Z,18.42
2022-09-16T09:13:03.656Z,18.40
2022-09-16T09:14:03.515Z,18.37
2022-09-16T09:15:03.045Z,18.36
2022-09-16T09:16:03.061Z,18.36
2022-09-16T09:17:03.077Z,18.36
2022-09-16T09:18:03.019Z,18.31
2022-09-16T09:19:03.089Z,18.28
2022-09-16T09:20:03.550Z,18.22
2022-09-16T09:21:03.208Z,18.18
2022-09-16T09:22:02.643Z,18.09
2022-09-16T09:23:02.690Z,18.06
2022-09-16T09:24:02.840Z,18.06
2022-09-16T09:25:02.961Z,18.04
2022-09-16T09:26:02.792Z,18.00
2022-09-16T09:27:02.801Z,18.00
2022-09-16T09:28:03.043Z,18.00
2022-09-16T09:29:03.090Z,18.04
2022-09-16T09:30:03.148Z,18.06
2022-09-16T09:31:05.205Z,18.07
2022-09-16T09:32:03.310Z,18.07
2022-09-16T09:33:03.327Z,18.07
2022-09-16T09:34:03.216Z,18.12
2022-09-16T09:35:03.554Z,18.07
2022-09-16T09:36:03.486Z,18.03
2022-09-16T09:37:02.924Z,17.97
2022-09-16T09:38:03.325Z,17.95
2022-09-16T09:39:03.297Z,17.85
2022-09-16T09:40:02.945Z,17.81
2022-09-16T09:41:03.075Z,17.84
2022-09-16T09:42:03.402Z,17.84
2022-09-16T09:43:03.435Z,17.88
2022-09-16T09:44:03.212Z,17.89
2022-09-16T09:45:03.154Z,17.92
2022-09-16T09:46:03.207Z,17.95
2022-09-16T09:47:02.866Z,18.03
2022-09-16T09:48:02.935Z,18.06
2022-09-16T09:49:02.775Z,18.12
2022-09-16T09:50:03.099Z,18.15
2022-09-16T09:51:03.016Z,18.22
2022-09-16T09:52:02.690Z,18.29
2022-09-16T09:53:02.363Z,18.36
2022-09-16T09:54:02.454Z,18.36
2022-09-16T09:55:02.336Z,18.37
2022-09-16T09:56:02.850Z,18.34
2022-09-16T09:57:03.269Z,18.28
2022-09-16T09:58:03.204Z,18.28
2022-09-16T09:59:03.187Z,18.29
2022-09-16T10:00:03.551Z,18.28
2022-09-16T10:01:02.991Z,18.33
2022-09-16T10:02:02.759Z,18.34
2022-09-16T10:03:02.652Z,18.42
2022-09-16T10:04:02.658Z,18.46
2022-09-16T10:05:02.588Z,18.46
2022-09-16T10:06:02.593Z,18.47
2022-09-16T10:08:02.897Z,18.62
2022-09-16T10:09:02.851Z,18.70
2022-09-16T10:10:02.771Z,18.80
2022-09-16T10:11:02.645Z,18.86
2022-09-16T10:12:03.617Z,18.94
2022-09-16T10:13:03.628Z,19.02
2022-09-16T10:14:03.659Z,19.14
2022-09-16T10:15:03.627Z,19.24
2022-09-16T10:16:03.307Z,19.33
2022-09-16T10:17:03.248Z,19.40
2022-09-16T10:18:03.420Z,19.39
2022-09-16T10:19:03.040Z,19.36
2022-09-16T10:20:03.309Z,19.36
2022-09-16T10:21:02.923Z,19.38
2022-09-16T10:22:03.506Z,19.36
2022-09-16T10:23:03.089Z,19.39
2022-09-16T10:24:03.815Z,19.33
2022-09-16T10:25:03.633Z,19.24
2022-09-16T10:26:03.457Z,19.21
2022-09-16T10:27:03.191Z,19.23
2022-09-16T10:28:03.038Z,19.20
2022-09-16T10:29:02.820Z,19.20
2022-09-16T10:30:02.887Z,19.18
2022-09-16T10:31:02.951Z,19.20
2022-09-16T10:32:03.723Z,19.17
2022-09-16T10:33:03.798Z,19.13
2022-09-16T10:34:03.498Z,19.01
2022-09-16T10:35:03.437Z,19.01
2022-09-16T10:36:03.701Z,19.11
2022-09-16T10:37:03.732Z,19.15
2022-09-16T10:38:03.812Z,19.17
2022-09-16T10:39:04.730Z,19.24
2022-09-16T10:40:03.894Z,19.29
2022-09-16T10:41:03.503Z,19.33
2022-09-16T10:42:03.948Z,19.39
2022-09-16T10:43:03.579Z,19.48
2022-09-16T10:44:03.638Z,19.51
2022-09-16T10:45:03.652Z,19.57
2022-09-16T10:46:03.839Z,19.60
2022-09-16T10:47:03.158Z,19.66
2022-09-16T10:48:06.458Z,19.65
2022-09-16T10:49:03.144Z,19.65
2022-09-16T10:50:02.993Z,19.63
2022-09-16T10:51:02.962Z,19.65
2022-09-16T10:52:03.375Z,19.72
2022-09-16T10:53:03.442Z,19.79
2022-09-16T10:54:03.461Z,19.87
2022-09-16T10:55:03.199Z,19.95
2022-09-16T10:56:03.246Z,19.97
2022-09-16T10:57:03.912Z,19.97
2022-09-16T10:58:03.620Z,19.91
2022-09-16T10:59:03.973Z,19.94
2022-09-16T11:00:03.579Z,20.03
2022-09-16T11:01:03.847Z,20.08
2022-09-16T11:02:03.059Z,20.00
2022-09-16T11:03:03.447Z,20.00
2022-09-16T11:04:05.182Z,20.10
2022-09-16T11:05:02.834Z,20.21
2022-09-16T11:06:03.330Z,20.34
2022-09-16T11:07:02.464Z,20.50
2022-09-16T11:08:02.502Z,20.62
2022-09-16T11:09:02.544Z,20.68
2022-09-16T11:10:02.795Z,20.74
2022-09-16T11:11:02.780Z,20.84
2022-09-16T11:12:04.452Z,20.89
2022-09-16T11:13:02.970Z,20.93
2022-09-16T11:14:03.037Z,20.87
2022-09-16T11:15:02.675Z,20.83
2022-09-16T11:16:02.982Z,20.84
2022-09-16T11:17:03.057Z,20.86
2022-09-16T11:18:03.245Z,20.89
2022-09-16T11:19:03.265Z,20.91
2022-09-16T11:20:03.231Z,20.98
2022-09-16T11:21:03.293Z,21.06
2022-09-16T11:22:03.717Z,21.09
2022-09-16T11:23:03.309Z,21.11
2022-09-16T11:24:02.831Z,21.06
2022-09-16T11:25:02.790Z,21.08
2022-09-16T11:26:03.381Z,21.09
2022-09-16T11:27:03.131Z,21.13
2022-09-16T11:28:03.954Z,21.09
2022-09-16T11:29:03.721Z,21.08
2022-09-16T11:30:03.708Z,20.99
2022-09-16T11:31:03.460Z,20.99
2022-09-16T11:32:03.374Z,21.01
2022-09-16T11:33:03.461Z,20.95
2022-09-16T11:34:03.010Z,20.90
2022-09-16T11:35:02.759Z,20.72
2022-09-16T11:36:02.633Z,20.59
2022-09-16T11:37:02.581Z,20.43
2022-09-16T11:38:03.191Z,20.42
2022-09-16T11:39:03.295Z,20.46
2022-09-16T11:40:03.194Z,20.49
2022-09-16T11:41:03.227Z,20.46
2022-09-16T11:42:03.272Z,20.49
2022-09-16T11:43:02.944Z,20.51
2022-09-16T11:44:03.045Z,20.53
2022-09-16T11:45:03.075Z,20.59
2022-09-16T11:46:03.261Z,20.69
2022-09-16T11:47:03.083Z,20.76
2022-09-16T11:48:03.122Z,20.84
2022-09-16T11:49:03.149Z,20.95
2022-09-16T11:50:02.989Z,21.06
2022-09-16T11:51:03.083Z,21.19
2022-09-16T11:52:03.162Z,21.17
2022-09-16T11:53:05.181Z,21.17
2022-09-16T11:54:03.461Z,21.16
2022-09-16T11:55:02.931Z,21.13
2022-09-16T11:56:02.794Z,21.06
2022-09-16T11:57:03.186Z,21.05
2022-09-16T11:58:03.177Z,21.02
2022-09-16T11:59:03.144Z,21.08
2022-09-16T12:00:03.014Z,21.17
2022-09-16T12:01:02.989Z,21.24
2022-09-16T12:02:03.067Z,21.38
2022-09-16T12:03:02.992Z,21.51
2022-09-16T12:04:02.803Z,21.61
2022-09-16T12:05:02.817Z,21.74
2022-09-16T12:06:02.841Z,21.71
2022-09-16T12:07:02.772Z,21.76
2022-09-16T12:08:02.542Z,21.83
2022-09-16T12:09:03.776Z,21.88
2022-09-16T12:10:02.031Z,21.88
2022-09-16T12:11:02.717Z,21.95
2022-09-16T12:12:02.483Z,22.01
2022-09-16T12:13:03.036Z,22.04
2022-09-16T12:14:06.063Z,22.09
2022-09-16T12:15:05.677Z,22.16
2022-09-16T12:16:03.192Z,22.20
2022-09-16T12:17:03.288Z,22.25
2022-09-16T12:18:01.903Z,22.19
2022-09-16T12:19:02.419Z,22.13
2022-09-16T12:20:02.120Z,22.10
2022-09-16T12:21:02.054Z,22.12
2022-09-16T12:22:02.020Z,22.16
2022-09-16T12:23:02.644Z,22.28
2022-09-16T12:24:02.657Z,22.29
2022-09-16T12:25:02.630Z,22.27
2022-09-16T12:26:02.618Z,22.28
2022-09-16T12:27:02.641Z,22.35
2022-09-16T12:28:03.349Z,22.49
2022-09-16T12:29:03.327Z,22.57
2022-09-16T12:30:03.185Z,22.57
2022-09-16T12:31:02.919Z,22.59
2022-09-16T12:32:03.566Z,22.46
2022-09-16T12:33:02.919Z,22.47
2022-09-16T12:34:02.702Z,22.41
2022-09-16T12:35:02.988Z,22.50
2022-09-16T12:36:02.755Z,22.59
2022-09-16T12:37:02.721Z,22.69
2022-09-16T12:38:03.422Z,22.82
2022-09-16T12:39:03.126Z,22.86
2022-09-16T12:40:03.135Z,22.93
2022-09-16T12:41:03.140Z,22.83
2022-09-16T12:42:02.935Z,22.68
2022-09-16T12:43:02.174Z,22.39
2022-09-16T12:44:16.721Z,22.04
2022-09-16T12:45:02.483Z,21.82
2022-09-16T12:46:02.421Z,21.74
2022-09-16T12:47:02.529Z,21.63
2022-09-16T12:48:03.246Z,21.53
2022-09-16T12:49:03.215Z,21.41
2022-09-16T12:50:03.219Z,21.27
2022-09-16T12:51:02.970Z,20.93
2022-09-16T12:52:02.669Z,20.64
2022-09-16T12:53:03.048Z,20.35
2022-09-16T12:54:03.037Z,20.16